LFBT/LDE METAR and TAF weather

Enter ICAO airport designator
Station Type Date Time Source
LFBT METAR 2021/07/30 23:00 UTC NOAA

LFBT 302300Z AUTO 22004KT 9999 FEW032 OVC040 17/16 Q1017 NOSIG


Station Type Date Time Source
LFBT Decoded METAR 2021/07/30 23:00 UTC NOAA

Tarbes Ossun Lourdes, France (LFBT) 43-11N 000-00W 363M
Jul 30, 2021 - 07:00 PM EDT / 2021.07.30 2300 UTC
Wind: from the SW (220 degrees) at 5 MPH (4 KT):0
Visibility: greater than 7 mile(s):0
Sky conditions: overcast
Temperature: 62 F (17 C)
Dew Point: 60 F (16 C)
Relative Humidity: 93%
Pressure (altimeter): 30.03 in. Hg (1017 hPa)
ob: LFBT 302300Z AUTO 22004KT 9999 FEW032 OVC040 17/16 Q1017 NOSIG
cycle: 23

Station Type Date Time Source
LFBT TAF 2021/07/30 18:42 UTC NOAA

TAF LFBT 301700Z 3018/3118 26005KT 9999 BKN030
BECMG 3021/3023 BKN016
TEMPO 3101/3118 4000 -SHRA BKN013 BKN060TCU PROB40
TEMPO 3108/3118 3000 TSRA BKN007 BKN050CB

Example: see airport list